Terminal Aerodrome Forecast
Issued by NWS

Home | Current Version | Previous Version | Text Only | Print | Product List | Glossary On
Versions: 1 2 3 4 5 6 7 8 9 10 11 12 13 14 15 16
000
FTUS43 KJKL 010730 AAC
TAFSME
TAF AMD
KSME 010730Z 0108/0206 VRB03KT 2SM BR SCT003 BKN050
      TEMPO 0108/0111 1/2SM FG BKN003
     FM011300 VRB05KT P6SM SCT010 BKN050=

USA.gov is the U.S. government's official web portal to all federal, state and local government web resources and services.